Time;durP1;ratioP1;P1;durP2;ratioP2;P2;SDS_P1;SDS_P2;PMS_P1;PMS_P2;Temp;Humidity;BMP_temperature;BMP_pressure;BME280_temperature;BME280_humidity;BME280_pressure;Samples;Min_cycle;Max_cycle;Signal;HPM_P1;HPM_P2
2022/11/01 00:01:14;;;;;;;7.27;4.87;;;18.60;96.70;;;;;;5053645;28;20217;-71
2022/11/01 00:03:41;;;;;;;7.17;6.20;;;18.60;96.70;;;;;;5055764;28;20217;-71
2022/11/01 00:06:07;;;;;;;6.43;5.83;;;18.70;96.70;;;;;;5054327;28;20589;-71
2022/11/01 00:08:33;;;;;;;6.10;5.50;;;18.60;96.60;;;;;;5055635;28;20165;-71
2022/11/01 00:11:03;;;;;;;11.80;6.60;;;18.60;96.80;;;;;;5055230;28;20667;-71
2022/11/01 00:13:29;;;;;;;6.70;5.10;;;18.70;97.00;;;;;;5055840;28;20514;-71
2022/11/01 00:15:55;;;;;;;5.63;5.20;;;18.80;97.10;;;;;;5054762;28;20420;-71
2022/11/01 00:18:21;;;;;;;9.10;5.40;;;18.80;96.80;;;;;;5055713;28;20425;-71
2022/11/01 00:20:47;;;;;;;7.73;5.43;;;18.80;96.90;;;;;;5054965;28;20173;-71
2022/11/01 00:23:13;;;;;;;6.23;5.63;;;18.80;97.00;;;;;;5037493;28;20510;-71
2022/11/01 00:25:38;;;;;;;6.17;5.67;;;18.90;96.80;;;;;;5054719;28;20182;-71
2022/11/01 00:28:04;;;;;;;6.77;6.07;;;18.80;97.10;;;;;;5054007;28;20178;-71
2022/11/01 00:30:30;;;;;;;6.83;6.33;;;18.80;97.20;;;;;;5055273;28;20197;-70
2022/11/01 00:32:56;;;;;;;9.23;6.23;;;18.80;97.40;;;;;;5053772;28;20570;-71
2022/11/01 00:35:23;;;;;;;11.40;5.90;;;18.80;97.30;;;;;;5055054;28;20173;-71
2022/11/01 00:37:48;;;;;;;10.20;5.40;;;18.80;97.80;;;;;;5052224;28;20431;-71
2022/11/01 00:40:14;;;;;;;5.80;5.30;;;18.80;97.80;;;;;;5054965;28;20875;-71
2022/11/01 00:42:40;;;;;;;16.77;5.47;;;18.80;97.70;;;;;;5055127;28;20193;-71
2022/11/01 00:45:06;;;;;;;8.67;5.30;;;18.70;98.20;;;;;;5054586;28;20999;-71
2022/11/01 00:47:32;;;;;;;5.87;5.27;;;18.70;99.00;;;;;;5037656;28;20877;-71
2022/11/01 00:49:58;;;;;;;7.73;5.40;;;18.70;98.50;;;;;;5054797;28;20416;-71
2022/11/01 00:52:23;;;;;;;6.43;5.70;;;18.80;98.70;;;;;;5036265;28;20584;-71
2022/11/01 00:54:49;;;;;;;8.90;4.60;;;18.80;98.80;;;;;;5054131;28;20252;-71
2022/11/01 00:57:15;;;;;;;10.33;6.27;;;18.80;99.50;;;;;;5054338;28;20185;-71
2022/11/01 00:59:40;;;;;;;6.00;5.40;;;18.80;99.90;;;;;;5054866;28;20253;-71
2022/11/01 01:02:06;;;;;;;6.23;4.70;;;18.70;99.90;;;;;;5063882;28;20231;-71
2022/11/01 01:04:32;;;;;;;7.63;5.20;;;18.70;99.90;;;;;;5074817;28;20177;-71
2022/11/01 01:06:57;;;;;;;8.00;5.20;;;18.60;99.90;;;;;;5074146;28;20487;-71
2022/11/01 01:09:23;;;;;;;6.87;5.50;;;18.60;99.90;;;;;;5074498;28;20199;-71
2022/11/01 01:11:49;;;;;;;7.03;5.10;;;18.50;99.90;;;;;;5073559;28;20177;-72
2022/11/01 01:14:14;;;;;;;5.47;5.07;;;18.50;99.90;;;;;;5074698;28;20209;-71
2022/11/01 01:16:40;;;;;;;6.67;5.57;;;18.50;99.90;;;;;;5074609;28;20165;-71
2022/11/01 01:19:06;;;;;;;6.30;5.70;;;18.50;99.90;;;;;;5073013;28;20173;-71
2022/11/01 01:21:32;;;;;;;8.67;6.23;;;18.50;99.90;;;;;;5073529;28;20180;-71
2022/11/01 01:23:57;;;;;;;9.00;5.90;;;18.50;99.90;;;;;;5073715;28;20486;-71
2022/11/01 01:26:23;;;;;;;8.43;5.87;;;18.60;99.90;;;;;;5055833;28;20177;-71
2022/11/01 01:28:52;;;;;;;6.70;6.00;;;18.60;99.90;;;;;;5074291;28;20572;-72
2022/11/01 01:31:18;;;;;;;6.60;6.00;;;18.60;99.90;;;;;;5072729;28;20175;-71
2022/11/01 01:33:44;;;;;;;6.93;6.10;;;18.70;99.90;;;;;;5074160;28;20486;-71
2022/11/01 01:36:09;;;;;;;9.17;6.17;;;18.60;99.90;;;;;;5073556;28;20169;-71
2022/11/01 01:38:35;;;;;;;6.63;6.03;;;18.70;99.90;;;;;;5074274;28;20268;-71
2022/11/01 01:43:45;;;;;;;8.73;6.17;;;18.50;99.90;;;;;;5074130;28;20598;-71
2022/11/01 01:46:10;;;;;;;6.67;6.07;;;18.40;99.90;;;;;;5072411;28;20431;-71
2022/11/01 01:48:39;;;;;;;6.60;6.00;;;18.40;99.90;;;;;;5073863;28;20177;-71
2022/11/01 01:51:09;;;;;;;8.70;6.83;;;18.40;99.90;;;;;;5073035;28;20204;-71
2022/11/01 01:53:39;;;;;;;6.63;6.00;;;18.30;99.90;;;;;;5073120;28;20484;-71
2022/11/01 01:56:08;;;;;;;7.27;6.30;;;18.10;99.90;;;;;;5073203;28;20415;-71
2022/11/01 01:58:40;;;;;;;7.57;6.03;;;18.00;99.90;;;;;;5073839;28;20403;-70
2022/11/01 02:01:05;;;;;;;10.87;6.70;;;17.90;99.90;;;;;;5065604;28;20456;-71
2022/11/01 02:03:34;;;;;;;8.40;5.87;;;17.90;99.90;;;;;;5053624;28;20942;-71
2022/11/01 02:06:07;;;;;;;12.33;6.17;;;17.80;99.90;;;;;;5052943;28;20491;-71
2022/11/01 02:08:34;;;;;;;7.20;5.70;;;17.70;99.90;;;;;;5036462;28;20398;-71
2022/11/01 02:11:01;;;;;;;6.33;5.77;;;17.60;99.90;;;;;;5052345;28;20743;-71
2022/11/01 02:13:29;;;;;;;6.50;5.70;;;17.50;99.90;;;;;;5053392;28;20427;-71
2022/11/01 02:16:02;;;;;;;8.93;6.60;;;17.50;99.90;;;;;;5052821;28;20408;-71
2022/11/01 02:18:54;;;;;;;13.43;7.03;;;17.60;99.90;;;;;;5035806;28;20407;-71
2022/11/01 02:21:44;;;;;;;7.30;6.60;;;17.60;99.90;;;;;;5051907;28;20428;-72
2022/11/01 02:24:22;;;;;;;6.80;6.20;;;17.60;99.90;;;;;;5051875;28;20407;-71
2022/11/01 02:26:59;;;;;;;10.10;7.20;;;17.70;99.90;;;;;;5053345;28;20726;-71
2022/11/01 02:29:57;;;;;;;9.80;6.57;;;17.70;99.90;;;;;;5035503;28;20399;-71
2022/11/01 02:32:25;;;;;;;7.27;6.57;;;17.70;99.90;;;;;;5051944;28;21095;-71
2022/11/01 02:34:58;;;;;;;7.70;5.90;;;17.70;99.90;;;;;;5035265;28;20408;-71
2022/11/01 02:37:31;;;;;;;6.57;5.80;;;17.70;99.90;;;;;;5049587;28;20526;-71
2022/11/01 02:40:05;;;;;;;6.23;5.33;;;17.70;99.90;;;;;;5052217;28;20740;-71
2022/11/01 02:42:43;;;;;;;7.50;5.77;;;17.80;99.90;;;;;;5053005;28;20440;-71
2022/11/01 02:45:27;;;;;;;8.27;5.83;;;17.70;99.90;;;;;;5022184;28;20528;-71
2022/11/01 02:47:56;;;;;;;6.13;5.53;;;17.80;99.90;;;;;;5032968;28;20389;-71
2022/11/01 02:50:23;;;;;;;5.93;5.33;;;17.90;99.90;;;;;;5032869;28;20460;-71
2022/11/01 02:52:50;;;;;;;9.80;6.50;;;17.90;99.90;;;;;;5023304;28;20473;-70
2022/11/01 02:55:32;;;;;;;6.00;5.40;;;17.90;99.90;;;;;;5052159;28;20408;-70
2022/11/01 02:58:02;;;;;;;6.20;5.43;;;17.90;99.90;;;;;;5052149;28;20458;-71
2022/11/01 03:00:33;;;;;;;5.40;4.90;;;18.00;99.90;;;;;;5052338;28;20481;-71
2022/11/01 03:03:22;;;;;;;8.17;5.20;;;18.00;99.90;;;;;;5051144;28;20471;-71
2022/11/01 03:06:00;;;;;;;5.57;5.17;;;18.00;99.90;;;;;;5052697;28;20491;-71
2022/11/01 03:08:50;;;;;;;6.30;5.70;;;17.90;99.90;;;;;;5052781;28;20439;-71
2022/11/01 03:11:19;;;;;;;8.17;5.93;;;17.90;99.90;;;;;;5052000;28;20412;-71
2022/11/01 03:13:55;;;;;;;8.27;5.27;;;17.90;99.90;;;;;;5052577;28;20423;-71
2022/11/01 03:16:28;;;;;;;6.80;5.70;;;17.80;99.90;;;;;;5034829;28;20494;-71
2022/11/01 03:19:06;;;;;;;7.17;5.67;;;17.80;99.90;;;;;;5052654;28;20450;-70
2022/11/01 03:21:39;;;;;;;6.37;5.77;;;17.80;99.90;;;;;;5052397;28;20412;-70
2022/11/01 03:24:20;;;;;;;7.80;5.87;;;17.80;99.90;;;;;;5051898;28;20392;-70
2022/11/01 03:26:53;;;;;;;5.90;5.30;;;17.80;99.90;;;;;;5033692;28;20428;-71
2022/11/01 03:29:22;;;;;;;6.10;5.50;;;17.70;99.90;;;;;;5051794;28;20380;-71
2022/11/01 03:31:50;;;;;;;10.03;6.20;;;17.70;99.90;;;;;;5034495;28;20440;-71
2022/11/01 03:34:18;;;;;;;6.07;5.47;;;17.60;99.90;;;;;;5052036;28;20404;-71
2022/11/01 03:36:58;;;;;;;10.60;5.70;;;17.70;99.90;;;;;;5004606;28;20416;-70
2022/11/01 03:39:39;;;;;;;7.10;6.03;;;17.70;99.90;;;;;;5038945;28;20392;-71
2022/11/01 03:42:10;;;;;;;6.90;6.20;;;17.70;99.90;;;;;;5004141;28;21000;-71
2022/11/01 03:44:43;;;;;;;8.60;5.57;;;17.70;99.90;;;;;;5038234;28;20886;-71
2022/11/01 03:47:11;;;;;;;7.60;5.77;;;17.80;99.90;;;;;;5053876;28;20420;-71
2022/11/01 03:49:36;;;;;;;6.67;5.80;;;17.80;99.90;;;;;;5056150;28;20419;-71
2022/11/01 03:52:04;;;;;;;6.13;5.53;;;17.90;99.90;;;;;;5053682;28;20419;-71
2022/11/01 03:54:30;;;;;;;10.23;6.67;;;17.80;99.90;;;;;;5056117;28;20172;-71
2022/11/01 03:56:56;;;;;;;6.43;5.73;;;17.70;99.90;;;;;;5055894;28;20879;-71
2022/11/01 03:59:24;;;;;;;7.13;5.40;;;17.80;99.90;;;;;;5053724;28;20264;-71
2022/11/01 04:01:51;;;;;;;6.00;5.40;;;17.70;99.90;;;;;;5061071;28;20252;-70
2022/11/01 04:04:17;;;;;;;6.90;5.43;;;17.80;99.90;;;;;;5075350;28;20431;-70
2022/11/01 04:06:42;;;;;;;7.57;5.67;;;17.80;99.90;;;;;;5075571;28;20403;-71
2022/11/01 04:09:09;;;;;;;11.93;5.67;;;17.80;99.90;;;;;;5075228;28;20199;-71
2022/11/01 04:11:35;;;;;;;8.87;5.50;;;17.90;99.90;;;;;;5075758;28;20173;-70
2022/11/01 04:22:13;;;;;;;6.50;5.00;;;17.90;99.90;;;;;;5074996;28;20474;-71
2022/11/01 04:24:39;;;;;;;6.77;5.40;;;17.90;99.90;;;;;;5075559;28;20503;-71
2022/11/01 04:27:05;;;;;;;6.40;5.80;;;17.70;99.90;;;;;;5074900;28;20176;-71
2022/11/01 04:29:30;;;;;;;6.37;5.87;;;17.80;99.90;;;;;;5075509;28;20298;-71
2022/11/01 04:31:56;;;;;;;6.30;5.70;;;17.80;99.90;;;;;;5074021;28;20180;-70
2022/11/01 04:34:41;;;;;;;6.23;5.70;;;17.80;99.90;;;;;;5074878;28;20418;-71
2022/11/01 04:37:07;;;;;;;6.03;5.20;;;17.70;99.90;;;;;;5072610;28;20698;-71
2022/11/01 04:39:32;;;;;;;8.20;6.23;;;17.70;99.90;;;;;;5075320;28;20396;-70
2022/11/01 04:41:58;;;;;;;8.07;6.20;;;17.70;99.90;;;;;;5074293;28;20875;-70
2022/11/01 04:44:24;;;;;;;10.80;6.73;;;17.80;99.90;;;;;;5074629;28;20169;-70
2022/11/01 04:46:49;;;;;;;6.50;5.87;;;17.80;99.90;;;;;;5064980;28;20257;-70
2022/11/01 04:49:15;;;;;;;6.47;5.87;;;17.80;99.90;;;;;;5054038;28;20185;-71
2022/11/01 04:51:41;;;;;;;8.83;5.90;;;17.90;99.90;;;;;;5055388;28;20412;-70
2022/11/01 04:54:07;;;;;;;7.10;6.50;;;17.90;99.90;;;;;;5054448;28;20170;-71
2022/11/01 04:56:33;;;;;;;6.77;6.17;;;18.00;99.90;;;;;;5054945;28;20165;-71
2022/11/01 04:58:58;;;;;;;6.40;5.77;;;17.90;99.90;;;;;;5054915;28;20174;-70
2022/11/01 05:01:24;;;;;;;7.97;6.40;;;18.00;99.90;;;;;;5044331;28;20791;-70
2022/11/01 05:03:50;;;;;;;9.37;7.10;;;18.00;99.90;;;;;;5034580;28;20214;-70
2022/11/01 05:06:16;;;;;;;6.43;5.73;;;18.00;99.90;;;;;;5020956;28;20428;-71
2022/11/01 05:08:42;;;;;;;6.33;5.73;;;18.00;99.90;;;;;;5054716;28;20192;-71
2022/11/01 05:11:07;;;;;;;6.67;5.97;;;18.10;99.90;;;;;;5053807;28;20193;-71
2022/11/01 05:13:33;;;;;;;6.47;5.90;;;18.00;99.90;;;;;;5053528;28;20253;-70
2022/11/01 05:16:02;;;;;;;8.83;6.83;;;18.00;99.90;;;;;;5054637;28;20177;-70
2022/11/01 05:18:28;;;;;;;9.40;7.27;;;17.90;99.90;;;;;;5053382;28;20181;-71
2022/11/01 05:20:55;;;;;;;6.57;5.90;;;17.90;99.90;;;;;;5054028;28;20419;-71
2022/11/01 05:23:21;;;;;;;6.47;5.97;;;17.90;99.90;;;;;;5048092;28;20521;-71
2022/11/01 05:25:47;;;;;;;6.73;6.20;;;17.90;99.90;;;;;;5054210;28;20397;-70
2022/11/01 05:28:13;;;;;;;6.90;6.27;;;18.00;99.90;;;;;;5053184;28;20411;-71
2022/11/01 05:30:40;;;;;;;7.13;6.00;;;18.00;99.90;;;;;;5053743;28;20503;-71
2022/11/01 05:33:06;;;;;;;6.70;5.80;;;17.80;99.90;;;;;;5052740;28;20185;-72
2022/11/01 05:35:34;;;;;;;7.50;5.90;;;17.80;99.90;;;;;;5053733;28;20415;-70
2022/11/01 05:38:00;;;;;;;6.07;5.47;;;17.80;99.90;;;;;;5048668;28;20416;-71
2022/11/01 05:40:26;;;;;;;6.03;5.53;;;17.70;99.90;;;;;;5053192;28;20452;-70
2022/11/01 05:42:52;;;;;;;7.00;6.00;;;17.70;99.90;;;;;;5052818;28;20958;-71
2022/11/01 05:45:18;;;;;;;6.40;5.83;;;17.70;99.90;;;;;;5053435;28;20166;-71
2022/11/01 05:47:43;;;;;;;6.10;5.50;;;17.80;99.90;;;;;;5054008;28;20192;-70
2022/11/01 05:50:14;;;;;;;7.43;6.80;;;17.80;99.90;;;;;;5053405;28;20199;-71
2022/11/01 05:52:40;;;;;;;8.30;7.60;;;17.90;99.90;;;;;;5051905;28;20174;-71
2022/11/01 05:55:09;;;;;;;8.73;7.10;;;17.80;99.90;;;;;;5053456;28;20511;-71
2022/11/01 05:57:35;;;;;;;6.57;5.97;;;17.70;99.90;;;;;;5053773;28;20744;-71
2022/11/01 06:00:01;;;;;;;7.83;6.37;;;17.80;99.90;;;;;;5052417;28;20459;-70
2022/11/01 06:02:30;;;;;;;7.03;6.33;;;17.90;99.90;;;;;;5051095;28;20230;-71
2022/11/01 06:04:56;;;;;;;5.90;5.33;;;17.90;99.90;;;;;;5035522;28;20404;-70
2022/11/01 06:07:22;;;;;;;6.43;5.83;;;17.80;99.90;;;;;;5031513;28;20493;-73
2022/11/01 06:09:47;;;;;;;5.80;5.30;;;17.90;99.90;;;;;;5050024;28;20193;-73
2022/11/01 06:12:13;;;;;;;6.43;5.93;;;17.90;99.90;;;;;;5043338;28;20727;-72
2022/11/01 06:14:38;;;;;;;7.17;6.40;;;17.90;99.90;;;;;;5050598;28;20178;-72
2022/11/01 06:17:04;;;;;;;7.17;6.57;;;18.00;99.90;;;;;;5053255;28;20166;-72
2022/11/01 06:19:30;;;;;;;6.93;6.23;;;18.00;99.90;;;;;;5052526;28;20189;-72
2022/11/01 06:21:56;;;;;;;7.37;6.37;;;18.10;99.90;;;;;;5035084;28;20232;-72
2022/11/01 06:24:22;;;;;;;6.70;6.10;;;18.10;99.90;;;;;;4999029;28;20229;-72
2022/11/01 06:26:48;;;;;;;6.37;5.70;;;18.10;99.90;;;;;;5051505;28;20424;-72
2022/11/01 06:29:13;;;;;;;6.87;6.10;;;18.10;99.90;;;;;;5051070;28;20194;-72
2022/11/01 06:31:39;;;;;;;9.17;6.63;;;18.20;99.90;;;;;;5051576;28;20197;-72
2022/11/01 06:34:05;;;;;;;6.60;6.00;;;18.20;99.90;;;;;;5003224;28;20549;-72
2022/11/01 06:36:31;;;;;;;6.53;6.03;;;18.20;99.90;;;;;;5051812;28;20416;-72
2022/11/01 06:38:56;;;;;;;6.77;6.27;;;18.20;99.90;;;;;;5050863;28;20261;-72
2022/11/01 06:41:22;;;;;;;26.27;7.00;;;18.10;99.90;;;;;;5023455;28;20213;-72
2022/11/01 06:43:48;;;;;;;8.13;7.20;;;18.10;99.90;;;;;;5045064;28;20226;-72
2022/11/01 06:46:14;;;;;;;6.20;5.60;;;18.10;99.90;;;;;;5044030;28;20285;-71
2022/11/01 06:48:40;;;;;;;5.63;5.23;;;18.20;99.90;;;;;;5051773;28;20443;-71
2022/11/01 06:51:06;;;;;;;5.43;5.03;;;18.20;99.90;;;;;;5052795;28;20174;-71
2022/11/01 06:53:31;;;;;;;4.80;4.50;;;18.20;99.90;;;;;;5052162;28;20668;-71
2022/11/01 06:55:58;;;;;;;7.00;4.83;;;18.20;99.90;;;;;;5052486;28;20169;-71
2022/11/01 06:58:25;;;;;;;5.07;4.67;;;18.20;99.90;;;;;;5051831;28;20606;-71
2022/11/01 07:00:50;;;;;;;5.27;4.80;;;18.10;99.90;;;;;;5041638;28;20455;-70
2022/11/01 07:03:16;;;;;;;4.50;4.07;;;18.20;99.90;;;;;;5071723;28;20474;-71
2022/11/01 07:05:42;;;;;;;5.00;4.53;;;18.20;99.90;;;;;;5072282;28;20173;-71
2022/11/01 07:08:11;;;;;;;5.07;4.60;;;18.20;99.90;;;;;;5072628;28;20164;-71
2022/11/01 07:10:40;;;;;;;5.20;4.37;;;18.30;99.90;;;;;;5072287;28;20172;-73
2022/11/01 07:13:07;;;;;;;4.63;4.30;;;18.20;99.90;;;;;;5070705;28;20986;-72
2022/11/01 07:15:34;;;;;;;4.00;3.70;;;18.30;99.90;;;;;;5065835;28;20427;-74
2022/11/01 07:18:02;;;;;;;4.47;4.10;;;18.30;99.90;;;;;;5072385;28;20460;-74
2022/11/01 07:20:29;;;;;;;5.30;4.80;;;18.40;99.90;;;;;;5071805;28;20415;-74
2022/11/01 07:23:05;;;;;;;3.83;3.63;;;18.40;99.90;;;;;;5067298;28;20462;-74
2022/11/01 07:25:32;;;;;;;4.33;4.03;;;18.40;99.90;;;;;;5055374;28;20457;-74
2022/11/01 07:27:58;;;;;;;4.47;4.17;;;18.30;99.90;;;;;;5054052;28;20410;-74
2022/11/01 07:30:25;;;;;;;4.43;4.10;;;18.20;99.90;;;;;;5064348;28;20894;-74
2022/11/01 07:32:58;;;;;;;4.63;3.97;;;18.10;99.90;;;;;;5056093;28;20446;-74
2022/11/01 07:35:24;;;;;;;5.33;4.90;;;18.10;99.90;;;;;;5066726;28;20881;-74
2022/11/01 07:37:50;;;;;;;6.23;5.63;;;18.10;99.90;;;;;;5060794;28;20775;-74
2022/11/01 07:40:16;;;;;;;4.90;4.50;;;18.10;99.90;;;;;;5071881;28;20411;-74
2022/11/01 07:42:44;;;;;;;8.07;5.53;;;18.10;99.90;;;;;;5072337;28;20219;-74
2022/11/01 07:45:11;;;;;;;4.40;3.90;;;18.10;99.90;;;;;;5072290;28;20407;-73
2022/11/01 07:47:37;;;;;;;6.73;6.00;;;18.00;99.00;;;;;;5072235;28;20420;-74
2022/11/01 07:50:04;;;;;;;4.80;4.40;;;17.90;99.90;;;;;;5072359;28;20415;-70
2022/11/01 07:52:30;;;;;;;7.17;6.13;;;17.90;99.90;;;;;;5074714;28;20750;-70
2022/11/01 07:54:56;;;;;;;3.73;3.00;;;17.80;99.90;;;;;;5082816;28;20415;-69
2022/11/01 07:57:21;;;;;;;5.60;3.43;;;17.70;99.30;;;;;;5071630;28;20921;-71
2022/11/01 07:59:47;;;;;;;3.33;2.50;;;17.70;99.50;;;;;;5072167;28;20258;-69
2022/11/01 08:02:13;;;;;;;51.57;38.13;;;17.60;99.20;;;;;;5055106;28;20222;-70
2022/11/01 08:04:38;;;;;;;33.83;28.13;;;17.50;99.00;;;;;;5052565;28;20188;-70
2022/11/01 08:07:04;;;;;;;118.00;85.80;;;17.60;99.90;;;;;;5052090;28;20556;-69
2022/11/01 08:09:30;;;;;;;19.90;15.70;;;17.50;99.60;;;;;;5051529;28;20618;-69
2022/11/01 08:11:55;;;;;;;3.37;3.17;;;17.60;99.80;;;;;;5051886;28;20185;-69
2022/11/01 08:14:21;;;;;;;3.20;2.90;;;17.60;99.30;;;;;;5041143;28;20174;-70
2022/11/01 08:16:54;;;;;;;4.87;3.37;;;17.60;98.90;;;;;;5032121;28;20614;-70
2022/11/01 08:19:22;;;;;;;3.00;2.80;;;17.60;98.90;;;;;;5036851;28;20219;-70
2022/11/01 08:21:49;;;;;;;4.00;3.70;;;17.60;99.40;;;;;;5035483;28;20405;-69
2022/11/01 08:24:16;;;;;;;3.50;2.87;;;17.60;99.00;;;;;;5030434;28;20405;-70
2022/11/01 08:26:42;;;;;;;4.00;3.13;;;17.60;98.60;;;;;;5035596;28;20470;-70
2022/11/01 08:29:08;;;;;;;2.83;2.63;;;17.70;98.40;;;;;;5046177;28;20502;-69
2022/11/01 08:31:33;;;;;;;2.53;2.43;;;17.70;98.40;;;;;;5036939;28;20408;-69
2022/11/01 08:33:59;;;;;;;3.47;3.27;;;17.80;98.40;;;;;;5055665;28;20428;-69
2022/11/01 08:36:25;;;;;;;3.80;3.60;;;17.80;97.50;;;;;;5004181;28;20169;-69
2022/11/01 08:38:50;;;;;;;2.80;2.70;;;17.80;97.40;;;;;;5036732;28;20170;-70
2022/11/01 08:41:16;;;;;;;4.33;2.73;;;17.80;97.20;;;;;;5053554;28;20625;-70
2022/11/01 08:43:42;;;;;;;3.50;3.10;;;17.90;97.60;;;;;;5055180;28;20205;-70
2022/11/01 08:46:09;;;;;;;2.67;2.53;;;17.90;97.10;;;;;;5054677;28;20271;-69
2022/11/01 08:48:35;;;;;;;2.83;2.73;;;18.00;96.90;;;;;;5052583;28;20504;-70
2022/11/01 08:51:01;;;;;;;2.63;2.50;;;18.10;97.50;;;;;;5041062;28;20892;-70
2022/11/01 08:53:27;;;;;;;3.23;3.03;;;18.20;96.40;;;;;;5049989;28;20424;-70
2022/11/01 08:55:54;;;;;;;2.80;2.70;;;18.30;95.80;;;;;;5053450;28;20440;-70
2022/11/01 08:58:20;;;;;;;4.13;2.60;;;18.50;95.20;;;;;;5033777;28;20409;-70
2022/11/01 09:00:46;;;;;;;3.57;2.90;;;18.80;93.40;;;;;;5034145;28;20460;-70
2022/11/01 09:03:13;;;;;;;2.90;2.50;;;18.90;90.80;;;;;;5034971;28;20943;-70
2022/11/01 09:05:39;;;;;;;2.70;2.33;;;19.20;89.40;;;;;;5034316;28;20174;-70
2022/11/01 09:08:05;;;;;;;2.63;2.50;;;19.30;88.10;;;;;;5034843;28;20408;-70
2022/11/01 09:10:31;;;;;;;3.30;2.47;;;19.60;86.80;;;;;;5034238;28;20413;-70
2022/11/01 09:12:58;;;;;;;3.47;2.90;;;19.80;84.60;;;;;;5034496;28;20228;-70
2022/11/01 09:15:23;;;;;;;3.93;2.70;;;20.10;81.60;;;;;;5034114;28;20496;-70
2022/11/01 09:17:49;;;;;;;5.57;2.93;;;20.20;79.90;;;;;;5034776;28;20506;-70
2022/11/01 09:20:15;;;;;;;3.00;2.70;;;20.40;78.80;;;;;;5034943;28;20182;-70
2022/11/01 09:22:41;;;;;;;3.37;3.03;;;20.60;77.50;;;;;;5034237;28;20212;-70
2022/11/01 09:25:07;;;;;;;5.07;2.77;;;20.80;76.30;;;;;;5034501;28;20872;-70
2022/11/01 09:27:33;;;;;;;2.70;2.50;;;21.00;76.00;;;;;;5033899;28;20171;-70
2022/11/01 09:29:58;;;;;;;4.60;3.00;;;21.20;74.80;;;;;;5034751;28;20486;-70
2022/11/01 09:32:27;;;;;;;4.37;2.40;;;21.40;74.10;;;;;;5033505;28;20261;-70
2022/11/01 09:34:53;;;;;;;6.07;3.30;;;21.60;71.20;;;;;;5034377;28;20167;-70
2022/11/01 09:37:19;;;;;;;4.60;2.50;;;21.60;70.90;;;;;;5033663;28;20764;-72
2022/11/01 09:39:44;;;;;;;4.70;4.20;;;21.70;70.10;;;;;;5033086;28;20166;-71
2022/11/01 09:42:49;;;;;;;4.73;2.93;;;21.80;90.70;;;;;;5016546;28;20209;-71
2022/11/01 09:45:21;;;;;;;6.93;2.77;;;21.70;78.40;;;;;;4971042;28;20187;-71
2022/11/01 09:47:51;;;;;;;6.30;3.70;;;21.50;77.60;;;;;;4972987;28;20868;-71
2022/11/01 09:50:21;;;;;;;3.57;3.27;;;21.50;83.20;;;;;;4972360;28;20504;-71
2022/11/01 09:52:49;;;;;;;3.60;2.87;;;21.60;82.60;;;;;;4959194;28;20451;-71
2022/11/01 09:55:18;;;;;;;4.23;3.57;;;21.70;77.20;;;;;;4961245;28;20980;-71
2022/11/01 09:57:53;;;;;;;5.30;3.77;;;21.70;77.80;;;;;;4961181;28;20417;-71
2022/11/01 10:00:20;;;;;;;5.70;3.70;;;21.70;72.70;;;;;;4965003;28;20513;-70
2022/11/01 10:03:14;;;;;;;4.77;3.50;;;21.70;77.90;;;;;;5007518;28;20477;-71
2022/11/01 10:05:53;;;;;;;4.40;3.60;;;21.80;70.20;;;;;;5010450;28;20410;-70
2022/11/01 10:08:27;;;;;;;9.30;3.97;;;21.70;76.90;;;;;;5007193;28;20410;-71
2022/11/01 10:11:10;;;;;;;4.57;3.30;;;21.80;70.20;;;;;;5011235;28;20505;-71
2022/11/01 10:13:54;;;;;;;4.23;3.57;;;21.70;67.90;;;;;;5010167;28;20410;-71
2022/11/01 10:16:28;;;;;;;6.17;3.50;;;21.80;74.80;;;;;;5050285;28;20963;-70
2022/11/01 10:19:00;;;;;;;3.90;3.30;;;21.90;70.90;;;;;;5061337;28;20387;-71
2022/11/01 10:21:30;;;;;;;4.00;3.00;;;22.20;71.70;;;;;;5062978;28;20416;-71
2022/11/01 10:24:00;;;;;;;6.10;4.83;;;22.20;66.40;;;;;;5066545;28;20443;-71
2022/11/01 10:26:29;;;;;;;6.73;4.20;;;22.30;70.00;;;;;;5063286;28;20404;-70
2022/11/01 10:28:58;;;;;;;3.60;3.30;;;22.30;64.50;;;;;;5070405;28;20438;-70
2022/11/01 10:31:26;;;;;;;7.37;3.33;;;22.30;69.20;;;;;;5072310;28;20498;-70
2022/11/01 10:34:01;;;;;;;8.70;3.33;;;22.30;63.40;;;;;;5071985;28;20476;-70
2022/11/01 10:36:36;;;;;;;5.13;3.13;;;22.30;68.60;;;;;;5053384;28;20403;-70
2022/11/01 10:39:31;;;;;;;6.83;3.37;;;22.30;67.60;;;;;;5053056;28;20419;-70
2022/11/01 10:42:01;;;;;;;4.97;3.50;;;22.30;65.50;;;;;;5052619;28;20900;-70
2022/11/01 10:44:35;;;;;;;4.60;3.00;;;22.20;64.20;;;;;;5052007;28;20408;-71
2022/11/01 10:47:05;;;;;;;3.47;3.00;;;22.10;63.80;;;;;;5051961;28;20912;-70
2022/11/01 10:49:36;;;;;;;3.43;2.67;;;22.20;67.90;;;;;;5052114;28;20868;-71
2022/11/01 10:52:06;;;;;;;6.67;2.70;;;22.30;64.90;;;;;;5051767;28;20397;-70
2022/11/01 10:54:36;;;;;;;4.63;2.80;;;22.20;63.80;;;;;;5052372;28;20400;-70
2022/11/01 10:57:10;;;;;;;3.93;2.90;;;22.20;65.50;;;;;;5052894;28;20407;-71
2022/11/01 10:59:42;;;;;;;5.60;3.73;;;22.50;67.10;;;;;;5051907;28;20876;-71
2022/11/01 11:02:29;;;;;;;3.07;2.33;;;22.60;66.50;;;;;;5036234;28;21026;-71
2022/11/01 11:04:58;;;;;;;4.57;2.90;;;22.60;61.20;;;;;;5032699;28;20547;-71
2022/11/01 11:07:28;;;;;;;6.17;3.07;;;22.60;61.60;;;;;;5032408;28;20413;-71
2022/11/01 11:09:54;;;;;;;6.20;3.33;;;22.70;64.00;;;;;;5015260;28;20393;-71
2022/11/01 11:12:22;;;;;;;4.87;3.03;;;22.80;63.30;;;;;;5032644;28;20475;-71
2022/11/01 11:14:58;;;;;;;8.20;2.77;;;22.90;65.90;;;;;;5032372;28;20432;-71
2022/11/01 11:17:29;;;;;;;61.72;52.33;;;23.10;65.20;;;;;;5030762;28;20409;-70
2022/11/01 11:20:01;;;;;;;12.80;10.97;;;23.30;63.30;;;;;;5032864;28;20174;-71
2022/11/01 11:22:26;;;;;;;4.77;3.37;;;23.40;64.70;;;;;;5032296;28;20503;-70
2022/11/01 11:24:56;;;;;;;7.30;5.50;;;23.30;59.50;;;;;;5032785;28;20440;-71
2022/11/01 11:27:28;;;;;;;7.57;3.30;;;23.20;61.60;;;;;;5032370;28;20166;-70
2022/11/01 11:29:58;;;;;;;7.40;3.37;;;23.20;60.30;;;;;;5015098;28;20813;-71
2022/11/01 11:32:27;;;;;;;4.60;3.50;;;23.00;60.00;;;;;;5032195;28;20917;-71
2022/11/01 11:35:16;;;;;;;5.07;3.00;;;22.90;62.80;;;;;;5032543;28;20405;-71
2022/11/01 11:38:03;;;;;;;5.73;4.07;;;22.90;62.20;;;;;;5031585;28;20788;-71
2022/11/01 11:40:49;;;;;;;5.63;2.90;;;22.80;62.90;;;;;;5031668;28;20433;-71
2022/11/01 11:43:36;;;;;;;3.40;3.10;;;22.50;59.00;;;;;;5032346;28;20461;-71
2022/11/01 11:46:17;;;;;;;4.23;3.03;;;22.10;59.80;;;;;;5032490;28;20402;-71
2022/11/01 11:49:00;;;;;;;3.97;3.00;;;22.00;63.70;;;;;;5032133;28;20500;-72
2022/11/01 11:51:28;;;;;;;8.20;3.53;;;21.90;62.90;;;;;;5032172;28;20409;-71
2022/11/01 11:54:27;;;;;;;6.30;3.30;;;21.70;65.00;;;;;;5032300;28;20401;-71
2022/11/01 11:57:07;;;;;;;5.27;2.70;;;21.80;64.60;;;;;;5035616;28;20757;-71
2022/11/01 11:59:34;;;;;;;3.07;2.43;;;21.90;66.50;;;;;;5035576;28;20535;-71
2022/11/01 12:02:02;;;;;;;7.60;2.97;;;21.80;66.40;;;;;;5035694;28;20457;-72
2022/11/01 12:04:46;;;;;;;4.83;2.93;;;21.80;65.90;;;;;;5035497;28;20420;-72
2022/11/01 12:07:30;;;;;;;3.20;2.70;;;21.90;68.50;;;;;;5036021;28;20401;-71
2022/11/01 12:10:01;;;;;;;101.07;75.33;;;21.80;66.50;;;;;;5036226;28;20389;-71
2022/11/01 12:12:32;;;;;;;18.43;13.80;;;21.70;65.60;;;;;;5035805;28;20408;-71
2022/11/01 12:15:00;;;;;;;6.27;3.10;;;21.60;63.80;;;;;;5018215;28;20405;-72
2022/11/01 12:17:43;;;;;;;29.33;23.97;;;21.60;63.00;;;;;;5036136;28;20413;-72
2022/11/01 12:20:16;;;;;;;14.43;12.93;;;21.50;68.30;;;;;;5035794;28;20435;-72
2022/11/01 12:22:53;;;;;;;10.40;8.53;;;21.50;68.00;;;;;;5017471;28;20444;-72
2022/11/01 12:25:23;;;;;;;8.27;7.40;;;21.50;69.60;;;;;;5035835;28;20412;-72
2022/11/01 12:28:32;;;;;;;3.37;3.10;;;21.50;70.10;;;;;;5035056;28;20830;-70
2022/11/01 12:31:19;;;;;;;6.50;4.27;;;21.40;65.00;;;;;;5035424;28;20408;-72
2022/11/01 12:34:02;;;;;;;5.70;3.10;;;21.10;66.60;;;;;;5017271;28;20417;-72
2022/11/01 12:36:51;;;;;;;3.43;3.13;;;21.00;66.50;;;;;;5035334;28;20432;-73
2022/11/01 12:39:49;;;;;;;5.47;3.20;;;20.90;66.10;;;;;;5017255;28;20445;-72
2022/11/01 12:42:40;;;;;;;5.63;4.17;;;20.80;69.40;;;;;;5035302;28;20471;-71
2022/11/01 12:45:26;;;;;;;6.73;4.07;;;20.80;72.00;;;;;;5022992;28;20416;-69
2022/11/01 12:47:58;;;;;;;7.10;3.77;;;20.80;72.70;;;;;;5034721;28;20408;-72
2022/11/01 12:50:53;;;;;;;5.53;4.10;;;20.90;70.70;;;;;;5035276;28;20432;-70
2022/11/01 12:53:24;;;;;;;4.47;3.57;;;20.80;70.70;;;;;;5013657;28;20429;-73
2022/11/01 12:55:50;;;;;;;3.63;2.97;;;20.90;69.00;;;;;;5034618;28;20386;-71
2022/11/01 12:58:18;;;;;;;3.57;3.20;;;20.80;69.90;;;;;;5034911;28;20401;-73
2022/11/01 13:01:09;;;;;;;8.47;7.67;;;20.70;73.70;;;;;;5033910;28;20998;-70
2022/11/01 13:04:01;;;;;;;43.87;35.03;;;20.80;73.70;;;;;;5034357;28;20461;-70
2022/11/01 13:07:08;;;;;;;5.23;4.63;;;21.00;74.30;;;;;;5034487;28;20743;-69
2022/11/01 13:09:37;;;;;;;3.43;2.87;;;21.00;70.50;;;;;;5021052;28;20467;-69
2022/11/01 13:12:16;;;;;;;3.90;3.50;;;21.00;66.10;;;;;;5034980;28;20777;-72